createdAt,value
2023-03-31T00:01:44.969Z,33.43
2023-03-31T00:04:14.152Z,33.42
2023-03-31T00:06:43.367Z,33.52
2023-03-31T00:09:13.429Z,33.48
2023-03-31T00:11:42.272Z,33.47
2023-03-31T00:14:10.880Z,33.56
2023-03-31T00:16:40.243Z,33.82
2023-03-31T00:19:14.054Z,33.78
2023-03-31T00:21:45.673Z,33.66
2023-03-31T00:24:14.527Z,33.56
2023-03-31T00:26:45.347Z,33.59
2023-03-31T00:29:14.758Z,33.56
2023-03-31T00:31:44.002Z,33.61
2023-03-31T00:34:12.671Z,33.58
2023-03-31T00:36:47.951Z,33.66
2023-03-31T00:39:19.335Z,33.74
2023-03-31T00:41:48.225Z,33.80
2023-03-31T00:44:23.301Z,33.88
2023-03-31T00:47:02.993Z,34.11
2023-03-31T00:49:33.525Z,34.16
2023-03-31T00:52:16.559Z,34.17
2023-03-31T00:54:45.928Z,34.04
2023-03-31T00:57:15.240Z,34.00
2023-03-31T00:59:46.480Z,34.12
2023-03-31T01:02:15.735Z,34.09
2023-03-31T01:04:46.542Z,34.09
2023-03-31T01:07:23.476Z,34.23
2023-03-31T01:09:54.745Z,34.32
2023-03-31T01:12:23.586Z,34.31
2023-03-31T01:14:52.553Z,34.26
2023-03-31T01:17:22.056Z,34.31
2023-03-31T01:19:52.380Z,34.35
2023-03-31T01:22:46.469Z,34.39
2023-03-31T01:25:21.460Z,34.39
2023-03-31T01:28:02.460Z,34.38
2023-03-31T01:30:37.686Z,34.47
2023-03-31T01:33:17.013Z,34.57
2023-03-31T01:46:23.254Z,34.59
2023-03-31T01:49:53.416Z,34.58
2023-03-31T01:52:50.364Z,34.25
2023-03-31T02:05:45.831Z,34.23
2023-03-31T02:08:55.925Z,34.18
2023-03-31T02:21:23.141Z,34.52
2023-03-31T02:24:17.745Z,34.49
2023-03-31T02:27:17.433Z,34.44
2023-03-31T02:33:27.719Z,34.42
2023-03-31T02:36:13.303Z,34.40
2023-03-31T02:42:27.923Z,34.84
2023-03-31T02:48:46.581Z,34.83
2023-03-31T03:02:16.620Z,34.89
2023-03-31T03:04:51.913Z,34.85
2023-03-31T03:07:23.649Z,34.86
2023-03-31T03:10:02.775Z,34.92
2023-03-31T03:12:41.979Z,34.79
2023-03-31T03:15:15.469Z,34.70
2023-03-31T03:17:45.041Z,34.80
2023-03-31T03:20:14.347Z,34.76
2023-03-31T03:22:45.852Z,34.86
2023-03-31T03:25:14.908Z,34.78
2023-03-31T03:27:44.562Z,34.90
2023-03-31T03:30:13.765Z,34.79
2023-03-31T03:32:43.806Z,34.78
2023-03-31T03:35:12.724Z,34.79
2023-03-31T03:37:41.610Z,34.82
2023-03-31T03:40:10.849Z,34.77
2023-03-31T03:42:40.241Z,34.80
2023-03-31T03:45:12.750Z,34.78
2023-03-31T03:47:41.526Z,34.79
2023-03-31T03:50:10.825Z,34.79
2023-03-31T03:52:40.350Z,34.73
2023-03-31T03:55:09.616Z,34.68
2023-03-31T03:57:38.746Z,34.68
2023-03-31T04:00:14.196Z,34.70
2023-03-31T04:02:44.682Z,34.77
2023-03-31T04:05:13.725Z,34.76
2023-03-31T04:07:42.365Z,34.84
2023-03-31T04:10:15.938Z,34.84
2023-03-31T04:12:45.527Z,34.70
2023-03-31T04:15:14.261Z,34.65
2023-03-31T04:17:51.496Z,34.74
2023-03-31T04:20:21.124Z,34.68
2023-03-31T04:22:51.228Z,34.48
2023-03-31T04:25:20.191Z,34.44
2023-03-31T04:27:55.169Z,34.47
2023-03-31T04:30:31.305Z,34.52
2023-03-31T04:33:01.637Z,34.54
2023-03-31T04:35:50.712Z,34.57
2023-03-31T04:38:21.253Z,34.55
2023-03-31T04:40:50.958Z,34.55
2023-03-31T04:43:20.630Z,34.56
2023-03-31T04:45:49.861Z,34.60
2023-03-31T04:48:19.793Z,34.74
2023-03-31T04:50:49.514Z,34.54
2023-03-31T04:53:18.313Z,34.62
2023-03-31T04:55:50.218Z,34.76
2023-03-31T04:58:19.158Z,34.88
2023-03-31T05:00:54.085Z,34.90
2023-03-31T05:03:24.342Z,34.95
2023-03-31T05:05:54.877Z,35.23
2023-03-31T05:08:23.703Z,35.34
2023-03-31T05:10:56.483Z,35.45
2023-03-31T05:13:26.403Z,35.29
2023-03-31T05:15:55.376Z,35.30
2023-03-31T05:18:30.794Z,35.42
2023-03-31T05:21:08.795Z,35.51
2023-03-31T05:23:37.822Z,35.63
2023-03-31T05:26:08.772Z,35.69
2023-03-31T05:28:38.993Z,35.63
2023-03-31T05:31:08.195Z,35.52
2023-03-31T05:33:42.412Z,35.48
2023-03-31T05:36:12.559Z,35.54
2023-03-31T05:38:41.909Z,35.64
2023-03-31T05:41:11.506Z,35.63
2023-03-31T05:43:40.516Z,35.70
2023-03-31T05:46:09.853Z,35.71
2023-03-31T05:48:39.318Z,35.79
2023-03-31T05:51:08.215Z,35.87
2023-03-31T05:53:37.567Z,35.86
2023-03-31T05:56:10.272Z,35.83
2023-03-31T05:58:40.548Z,35.82
2023-03-31T06:01:12.258Z,35.90
2023-03-31T06:03:42.993Z,36.05
2023-03-31T06:06:13.693Z,35.97
2023-03-31T06:08:48.432Z,35.97
2023-03-31T06:11:22.244Z,35.94
2023-03-31T06:13:51.319Z,36.14
2023-03-31T06:16:22.150Z,36.20
2023-03-31T06:18:54.080Z,36.23
2023-03-31T06:21:23.223Z,36.18
2023-03-31T06:23:56.522Z,36.18
2023-03-31T06:26:25.379Z,36.23
2023-03-31T06:28:54.445Z,36.29
2023-03-31T06:31:24.351Z,36.57
2023-03-31T06:33:53.722Z,36.65
2023-03-31T06:36:23.044Z,36.75
2023-03-31T06:38:52.186Z,36.59
2023-03-31T06:41:21.623Z,36.46
2023-03-31T06:43:50.712Z,36.29
2023-03-31T06:46:19.835Z,36.32
2023-03-31T06:48:49.257Z,36.52
2023-03-31T06:51:18.540Z,36.50
2023-03-31T06:53:48.457Z,36.46
2023-03-31T06:56:19.279Z,36.48
2023-03-31T06:58:49.584Z,36.57
2023-03-31T07:01:18.585Z,36.64
2023-03-31T07:03:48.669Z,36.84
2023-03-31T07:06:18.629Z,36.89
2023-03-31T07:08:47.664Z,36.91
2023-03-31T07:11:17.167Z,37.00
2023-03-31T07:13:50.202Z,37.14
2023-03-31T07:16:19.555Z,37.20
2023-03-31T07:18:51.365Z,37.28
2023-03-31T07:21:40.429Z,37.37
2023-03-31T07:24:09.467Z,37.44
2023-03-31T07:26:39.122Z,37.50
2023-03-31T07:29:08.672Z,37.55
2023-03-31T07:31:38.527Z,37.65
2023-03-31T07:34:09.131Z,37.70
2023-03-31T07:36:38.095Z,37.77
2023-03-31T07:39:07.675Z,37.88
2023-03-31T07:41:38.303Z,37.97
2023-03-31T07:44:07.935Z,38.02
2023-03-31T07:46:37.581Z,38.12
2023-03-31T07:49:07.896Z,38.25
2023-03-31T07:51:37.101Z,37.64
2023-03-31T07:54:06.522Z,37.68
2023-03-31T07:56:39.731Z,37.75
2023-03-31T07:59:08.995Z,37.82
2023-03-31T08:01:39.038Z,37.90
2023-03-31T08:04:12.428Z,38.06
2023-03-31T08:06:41.733Z,38.15
2023-03-31T08:09:10.986Z,38.26
2023-03-31T08:11:39.822Z,38.38
2023-03-31T08:14:09.224Z,38.55
2023-03-31T08:16:38.198Z,38.69
2023-03-31T08:19:08.746Z,38.83
2023-03-31T08:21:37.934Z,38.91
2023-03-31T08:24:10.371Z,39.09
2023-03-31T08:26:39.753Z,39.12
2023-03-31T08:29:08.708Z,39.10
2023-03-31T08:31:38.219Z,39.16
2023-03-31T08:34:07.335Z,39.22
2023-03-31T08:36:37.664Z,39.21
2023-03-31T08:39:08.079Z,39.21
2023-03-31T08:41:56.557Z,39.20
2023-03-31T08:44:25.583Z,39.30
2023-03-31T08:46:55.161Z,39.36
2023-03-31T08:49:24.353Z,39.29
2023-03-31T08:51:59.702Z,39.16
2023-03-31T08:54:36.709Z,39.15
2023-03-31T08:57:06.681Z,39.22
2023-03-31T08:59:39.505Z,39.28
2023-03-31T09:02:28.131Z,39.26
2023-03-31T09:04:57.567Z,39.31
2023-03-31T09:07:46.039Z,39.45
2023-03-31T09:10:17.923Z,39.52
2023-03-31T09:12:58.324Z,39.55
2023-03-31T09:15:29.764Z,39.50
2023-03-31T09:18:00.210Z,39.52
2023-03-31T09:20:38.014Z,39.55
2023-03-31T09:23:10.186Z,39.71
2023-03-31T09:25:39.069Z,39.74
2023-03-31T09:28:14.661Z,39.68
2023-03-31T09:30:43.669Z,39.53
2023-03-31T09:33:20.783Z,39.52
2023-03-31T09:35:51.977Z,39.59
2023-03-31T09:38:30.059Z,39.52
2023-03-31T09:40:59.877Z,39.54
2023-03-31T09:43:30.178Z,39.56
2023-03-31T09:46:09.152Z,39.61
2023-03-31T09:48:39.737Z,39.59
2023-03-31T09:51:09.120Z,39.51
2023-03-31T09:53:44.117Z,39.44
2023-03-31T09:56:14.375Z,39.51
2023-03-31T09:58:44.185Z,39.67
2023-03-31T10:01:13.695Z,39.93
2023-03-31T10:04:03.267Z,39.60
2023-03-31T10:06:40.089Z,39.56
2023-03-31T10:09:10.182Z,39.71
2023-03-31T10:11:39.245Z,39.79
2023-03-31T10:14:15.029Z,40.00
2023-03-31T10:16:47.644Z,39.92
2023-03-31T10:19:21.068Z,39.86
2023-03-31T10:21:59.866Z,40.01
2023-03-31T10:24:41.985Z,39.71
2023-03-31T10:27:19.949Z,39.13
2023-03-31T10:29:49.305Z,39.01
2023-03-31T10:32:21.156Z,39.02
2023-03-31T10:34:53.001Z,39.03
2023-03-31T10:37:23.077Z,39.07
2023-03-31T10:40:09.768Z,39.10
2023-03-31T10:42:38.691Z,39.14
2023-03-31T10:45:36.626Z,39.23
2023-03-31T10:48:07.662Z,39.31
2023-03-31T10:50:37.281Z,39.33
2023-03-31T10:53:07.847Z,39.34
2023-03-31T10:56:12.294Z,39.35
2023-03-31T10:59:05.281Z,39.29
2023-03-31T11:01:35.321Z,39.28
2023-03-31T11:04:19.919Z,39.20
2023-03-31T11:06:52.396Z,39.17
2023-03-31T11:09:30.695Z,39.17
2023-03-31T11:12:03.649Z,39.16
2023-03-31T11:14:42.026Z,39.23
2023-03-31T11:17:17.395Z,39.30
2023-03-31T11:20:07.424Z,39.18
2023-03-31T11:22:55.570Z,38.84
2023-03-31T11:25:24.851Z,38.68
2023-03-31T11:28:13.694Z,38.63
2023-03-31T11:30:49.154Z,38.73
2023-03-31T11:33:26.064Z,38.77
2023-03-31T11:36:00.694Z,38.85
2023-03-31T11:38:54.256Z,38.94
2023-03-31T11:41:33.618Z,39.06
2023-03-31T11:44:04.561Z,39.03
2023-03-31T11:46:41.775Z,39.11
2023-03-31T11:49:17.119Z,39.25
2023-03-31T11:52:02.848Z,39.41
2023-03-31T11:54:32.048Z,39.59
2023-03-31T11:57:28.345Z,39.75
2023-03-31T11:59:59.079Z,39.77
2023-03-31T12:02:34.360Z,39.81
2023-03-31T12:05:04.734Z,39.94
2023-03-31T12:07:42.590Z,39.91
2023-03-31T12:10:13.451Z,39.92
2023-03-31T12:12:43.584Z,39.95
2023-03-31T12:15:19.996Z,40.03
2023-03-31T12:17:53.496Z,40.19
2023-03-31T12:20:26.030Z,40.23
2023-03-31T12:22:55.166Z,40.21
2023-03-31T12:25:27.135Z,40.20
2023-03-31T12:27:57.476Z,40.23
2023-03-31T12:30:38.161Z,40.19
2023-03-31T12:33:16.795Z,40.15
2023-03-31T12:35:51.864Z,40.12
2023-03-31T12:38:23.770Z,40.21
2023-03-31T12:41:08.136Z,40.28
2023-03-31T12:43:58.213Z,40.25
2023-03-31T12:46:46.063Z,40.24
2023-03-31T12:49:21.641Z,40.01
2023-03-31T12:52:10.290Z,39.84
2023-03-31T12:54:45.633Z,39.75
2023-03-31T12:57:17.314Z,39.75
2023-03-31T12:59:46.692Z,39.73
2023-03-31T13:02:15.814Z,39.90
2023-03-31T13:04:45.124Z,39.92
2023-03-31T13:07:27.183Z,39.69
2023-03-31T13:10:24.400Z,39.57
2023-03-31T13:12:58.042Z,39.51
2023-03-31T13:15:27.483Z,39.62
2023-03-31T13:18:00.618Z,39.76
2023-03-31T13:20:32.284Z,39.81
2023-03-31T13:23:21.055Z,39.93
2023-03-31T13:25:53.592Z,39.88
2023-03-31T13:28:22.879Z,39.94
2023-03-31T13:30:59.078Z,39.88
2023-03-31T13:33:28.917Z,39.72
2023-03-31T13:36:18.267Z,39.77
2023-03-31T13:38:47.546Z,39.79
2023-03-31T13:41:38.995Z,39.80
2023-03-31T13:44:18.126Z,39.97
2023-03-31T13:46:52.784Z,40.01
2023-03-31T13:49:45.072Z,40.00
2023-03-31T13:52:14.025Z,39.96
2023-03-31T13:55:16.660Z,39.93
2023-03-31T13:57:50.384Z,39.89
2023-03-31T14:00:58.075Z,39.84
2023-03-31T14:03:47.128Z,39.81
2023-03-31T14:06:19.503Z,39.97
2023-03-31T14:08:54.404Z,40.04
2023-03-31T14:11:26.900Z,39.91
2023-03-31T14:14:07.274Z,39.73
2023-03-31T14:16:56.504Z,39.67
2023-03-31T14:19:28.496Z,39.42
2023-03-31T14:22:01.634Z,39.26
2023-03-31T14:24:49.599Z,39.17
2023-03-31T14:27:31.318Z,39.05
2023-03-31T14:30:00.497Z,39.06
2023-03-31T14:32:34.027Z,38.98
2023-03-31T14:35:05.749Z,38.85
2023-03-31T14:37:35.567Z,38.82
2023-03-31T14:40:05.502Z,38.78
2023-03-31T14:42:41.875Z,38.73
2023-03-31T14:45:25.791Z,38.78
2023-03-31T14:47:57.944Z,39.02
2023-03-31T14:50:31.881Z,38.88
2023-03-31T14:53:01.905Z,38.68
2023-03-31T14:55:54.245Z,38.45
2023-03-31T14:58:24.883Z,38.45
2023-03-31T15:00:54.473Z,38.51
2023-03-31T15:03:26.270Z,38.32
2023-03-31T15:05:58.801Z,38.13
2023-03-31T15:08:27.588Z,37.83
2023-03-31T15:11:02.439Z,37.59
2023-03-31T15:14:03.606Z,37.46
2023-03-31T15:16:43.041Z,37.34
2023-03-31T15:19:16.865Z,37.54
2023-03-31T15:21:46.194Z,37.62
2023-03-31T15:24:15.046Z,37.50
2023-03-31T15:26:56.518Z,37.38
2023-03-31T15:29:38.610Z,37.33
2023-03-31T15:32:09.014Z,37.51
2023-03-31T15:34:38.311Z,37.44
2023-03-31T15:37:10.280Z,37.23
2023-03-31T15:39:40.312Z,37.22
2023-03-31T15:42:09.118Z,37.23
2023-03-31T15:44:40.366Z,37.21
2023-03-31T15:47:13.769Z,37.07
2023-03-31T15:49:53.080Z,37.02
2023-03-31T15:52:23.327Z,37.17
2023-03-31T15:54:52.366Z,37.23
2023-03-31T15:57:22.786Z,37.13
2023-03-31T15:59:56.675Z,37.11
2023-03-31T16:02:44.558Z,37.15
2023-03-31T16:08:13.755Z,37.18
2023-03-31T16:10:42.513Z,37.11
2023-03-31T16:13:18.149Z,37.01
2023-03-31T16:15:48.592Z,37.00
2023-03-31T16:18:18.493Z,36.94
2023-03-31T16:20:54.183Z,36.89
2023-03-31T16:23:45.056Z,37.31
2023-03-31T16:26:15.144Z,37.46
2023-03-31T16:28:46.567Z,37.33
2023-03-31T16:31:29.049Z,37.13
2023-03-31T16:33:58.489Z,37.18
2023-03-31T16:36:27.804Z,37.11
2023-03-31T16:38:59.116Z,37.05
2023-03-31T16:41:29.645Z,37.23
2023-03-31T16:43:59.685Z,37.42
2023-03-31T16:46:32.705Z,37.55
2023-03-31T16:49:01.851Z,37.56
2023-03-31T16:51:31.493Z,37.65
2023-03-31T16:54:00.269Z,37.75
2023-03-31T16:56:28.942Z,37.78
2023-03-31T16:58:57.979Z,37.73
2023-03-31T17:01:26.980Z,37.68
2023-03-31T17:03:57.078Z,37.57
2023-03-31T17:06:26.226Z,37.54
2023-03-31T17:08:57.444Z,37.52
2023-03-31T17:11:33.767Z,37.64
2023-03-31T17:14:05.842Z,37.64
2023-03-31T17:16:47.341Z,37.65
2023-03-31T17:19:18.403Z,37.57
2023-03-31T17:21:47.305Z,37.51
2023-03-31T17:24:16.705Z,37.57
2023-03-31T17:26:46.287Z,37.51
2023-03-31T17:29:16.654Z,37.54
2023-03-31T17:31:46.621Z,37.60
2023-03-31T17:34:15.954Z,37.65
2023-03-31T17:36:45.716Z,37.68
2023-03-31T17:39:14.863Z,37.64
2023-03-31T17:41:44.179Z,37.59
2023-03-31T17:44:15.264Z,37.62
2023-03-31T17:46:45.604Z,37.66
2023-03-31T17:49:14.941Z,37.71
2023-03-31T17:51:44.788Z,37.71
2023-03-31T17:54:15.203Z,37.73
2023-03-31T17:56:46.003Z,37.75
2023-03-31T17:59:14.881Z,37.77
2023-03-31T18:01:44.673Z,37.75
2023-03-31T18:04:15.410Z,37.77
2023-03-31T18:06:45.319Z,37.75
2023-03-31T18:09:15.198Z,37.63
2023-03-31T18:11:44.112Z,37.67
2023-03-31T18:14:14.033Z,37.75
2023-03-31T18:16:43.959Z,37.74
2023-03-31T18:19:12.929Z,37.78
2023-03-31T18:21:45.780Z,37.81
2023-03-31T18:24:15.023Z,37.66
2023-03-31T18:26:44.300Z,37.40
2023-03-31T18:29:16.995Z,37.34
2023-03-31T18:31:46.238Z,37.50
2023-03-31T18:34:16.926Z,37.50
2023-03-31T18:36:46.771Z,37.76
2023-03-31T18:39:16.623Z,37.86
2023-03-31T18:41:46.494Z,37.90
2023-03-31T18:44:17.894Z,37.79
2023-03-31T18:46:47.444Z,37.63
2023-03-31T18:49:16.973Z,37.51
2023-03-31T18:51:45.864Z,37.66
2023-03-31T18:54:14.789Z,37.75
2023-03-31T18:56:44.347Z,37.70
2023-03-31T18:59:14.932Z,37.61
2023-03-31T19:01:44.027Z,37.58
2023-03-31T19:04:13.445Z,37.51
2023-03-31T19:06:44.230Z,37.43
2023-03-31T19:09:12.954Z,37.20
2023-03-31T19:11:42.171Z,37.00
2023-03-31T19:14:11.240Z,36.92
2023-03-31T19:16:59.995Z,36.94
2023-03-31T19:19:37.226Z,36.92
2023-03-31T19:22:06.275Z,36.68
2023-03-31T19:24:35.165Z,36.68
2023-03-31T19:27:06.975Z,36.86
2023-03-31T19:29:36.534Z,36.69
2023-03-31T19:32:06.975Z,36.79
2023-03-31T19:34:36.942Z,36.93
2023-03-31T19:37:07.140Z,36.98
2023-03-31T19:39:37.379Z,37.20
2023-03-31T19:42:06.569Z,37.38
2023-03-31T19:44:36.035Z,37.41
2023-03-31T19:47:05.274Z,37.45
2023-03-31T19:49:34.562Z,37.39
2023-03-31T19:52:04.711Z,37.44
2023-03-31T19:54:34.154Z,37.48
2023-03-31T19:57:03.427Z,37.56
2023-03-31T19:59:33.973Z,37.66
2023-03-31T20:02:05.802Z,37.62
2023-03-31T20:04:35.684Z,37.67
2023-03-31T20:07:04.792Z,37.73
2023-03-31T20:09:34.011Z,37.57
2023-03-31T20:12:03.002Z,37.34
2023-03-31T20:14:34.910Z,37.08
2023-03-31T20:17:07.986Z,37.05
2023-03-31T20:19:36.992Z,37.04
2023-03-31T20:22:05.854Z,37.03
2023-03-31T20:24:35.272Z,37.04
2023-03-31T20:27:05.126Z,37.21
2023-03-31T20:29:37.496Z,37.07
2023-03-31T20:32:07.611Z,36.97
2023-03-31T20:34:36.699Z,36.93
2023-03-31T20:37:05.421Z,36.96
2023-03-31T20:39:35.101Z,36.95
2023-03-31T20:42:04.201Z,36.88
2023-03-31T20:44:33.221Z,36.99
2023-03-31T20:47:02.373Z,37.13
2023-03-31T20:49:31.772Z,37.06
2023-03-31T20:52:02.846Z,36.80
2023-03-31T20:54:32.495Z,36.86
2023-03-31T20:57:02.105Z,37.25
2023-03-31T20:59:33.260Z,37.37
2023-03-31T21:02:02.775Z,37.32
2023-03-31T21:04:31.980Z,37.46
2023-03-31T21:07:01.557Z,37.49
2023-03-31T21:09:31.438Z,37.61
2023-03-31T21:12:03.168Z,37.64
2023-03-31T21:14:32.643Z,37.48
2023-03-31T21:17:01.572Z,37.36
2023-03-31T21:19:32.216Z,37.47
2023-03-31T21:22:01.157Z,37.43
2023-03-31T21:24:30.170Z,37.41
2023-03-31T21:26:58.908Z,37.45
2023-03-31T21:29:28.102Z,37.52
2023-03-31T21:31:57.936Z,37.53
2023-03-31T21:34:27.822Z,37.55
2023-03-31T21:36:56.811Z,37.38
2023-03-31T21:39:25.912Z,37.05
2023-03-31T21:41:54.801Z,36.93
2023-03-31T21:44:23.527Z,36.94
2023-03-31T21:46:52.416Z,36.98
2023-03-31T21:49:22.301Z,37.06
2023-03-31T21:51:51.191Z,37.17
2023-03-31T21:54:19.912Z,37.17
2023-03-31T21:56:51.182Z,37.18
2023-03-31T21:59:21.724Z,37.20
2023-03-31T22:01:50.562Z,37.16
2023-03-31T22:04:20.933Z,37.12
2023-03-31T22:06:49.683Z,37.11
2023-03-31T22:09:18.707Z,37.09
2023-03-31T22:11:48.278Z,37.11
2023-03-31T22:14:22.786Z,37.08
2023-03-31T22:16:55.530Z,36.92
2023-03-31T22:19:26.864Z,36.94
2023-03-31T22:21:59.128Z,37.16
2023-03-31T22:24:27.965Z,37.19
2023-03-31T22:26:57.328Z,37.16
2023-03-31T22:29:26.742Z,37.18
2023-03-31T22:31:55.865Z,37.08
2023-03-31T22:34:25.471Z,36.89
2023-03-31T22:36:54.317Z,36.77
2023-03-31T22:39:23.795Z,36.85
2023-03-31T22:41:52.897Z,36.88
2023-03-31T22:44:22.318Z,36.55
2023-03-31T22:46:51.812Z,36.64
2023-03-31T22:49:20.815Z,36.64
2023-03-31T22:51:49.892Z,36.56
2023-03-31T22:54:18.933Z,36.49
2023-03-31T22:56:48.000Z,36.47
2023-03-31T22:59:17.698Z,36.40
2023-03-31T23:01:54.132Z,36.46
2023-03-31T23:04:26.094Z,36.63
2023-03-31T23:06:55.583Z,36.70
2023-03-31T23:09:25.230Z,36.54
2023-03-31T23:11:53.892Z,36.39
2023-03-31T23:14:25.001Z,36.28
2023-03-31T23:16:54.376Z,36.36
2023-03-31T23:19:23.074Z,36.36
2023-03-31T23:21:53.333Z,36.37
2023-03-31T23:24:25.482Z,36.63
2023-03-31T23:26:58.631Z,36.85
2023-03-31T23:29:27.926Z,36.86
2023-03-31T23:31:57.079Z,36.71
2023-03-31T23:34:27.210Z,36.56
2023-03-31T23:36:56.044Z,36.52
2023-03-31T23:39:31.703Z,36.53
2023-03-31T23:42:00.623Z,36.62
2023-03-31T23:44:30.990Z,36.30
2023-03-31T23:46:59.839Z,36.29
2023-03-31T23:49:28.746Z,36.37
2023-03-31T23:51:57.694Z,36.39
2023-03-31T23:54:27.134Z,36.44
2023-03-31T23:56:56.841Z,36.52
2023-03-31T23:59:26.016Z,36.60
